McNary, Arizona
Current Conditions -  °F | °C
As of 3:15 PM on Sunday 23 Nov 2014 (Local Time) from KSOW Reporting Station
Clear Clear  
Wind Chill: 29°   Ceiling: Unl
Heat Index: 39°   Visibility: 10mi
Dew Point: -8°   Wind: 22mph
Humidity: 14%   Direction: 320°NW
Pressure: 30.11"   Gusts: 31mph
Location:  34.07°N, 109.86°W
Report Text: KSOW 232215Z AUTO 32019G27KT 10SM CLR 04/M22 A3011 RMK AO2
Loading
Personal Weather Stations






























Interactive Weather Map New forecast layout! Learn more

10-Day Weather Forecast

Advertisements
Track Severe Weather on mobile